ADDS METAR Data INFO
IDs: Format: Raw Decoded Include TAF

Data at: 2039 UTC 20 Jul 2018

KACV 201953Z AUTO 30005KT 8SM CLR 16/11 A2994 RMK AO2 SLP145 T01560111
KACV 201853Z AUTO 28007KT 7SM CLR 16/12 A2994 RMK AO2 SLP144 T01560117
KACV 201753Z AUTO 28005KT 6SM HZ CLR 14/11 A2994 RMK AO2 SLP142 T01440111 10144 20072 52001
KACV 201711Z AUTO 24005KT 5SM HZ SCT013 14/11 A2994 RMK AO2 T01390111
KACV 201653Z AUTO 27004KT 5SM HZ BKN011 14/11 A2993 RMK AO2 SLP141 T01390111
KACV 201623Z AUTO VRB04KT 4SM BR FEW007 OVC011 13/11 A2993 RMK AO2 T01330111
KACV 201553Z AUTO 00000KT 3SM BR BKN007 OVC011 13/11 A2994 RMK AO2 SLP142 T01280111
KACV 201542Z AUTO 25003KT 4SM BR BKN008 13/11 A2993 RMK AO2 T01280111
KACV 201530Z AUTO 00000KT 6SM BR SCT008 12/11 A2994 RMK AO2 T01220111
KACV 201453Z AUTO 00000KT 6SM BR CLR 12/11 A2993 RMK AO2 SLP142 T01170106 53002
KACV 201353Z AUTO 10003KT 7SM CLR 08/08 A2993 RMK AO2 SLP140 T00830078
KACV 201253Z AUTO 09003KT 8SM CLR 08/07 A2993 RMK AO2 SLP139 T00780072
KACV 201153Z AUTO 00000KT 8SM CLR 08/08 A2993 RMK AO2 SLP139 7//// T00780078 10106 20078 51001
KACV 201053Z AUTO 09003KT 7SM CLR 08/08 A2993 RMK AO2 SLP139 T00830078
KACV 200953Z AUTO 00000KT 8SM CLR 09/08 A2992 RMK AO2 SLP138 T00890083
KACV 200853Z AUTO 09004KT 8SM CLR 10/09 A2992 RMK AO2 SLP138 T01000089 56014
KACV 200753Z AUTO 15005KT 8SM CLR 11/09 A2993 RMK AO2 SLP140 T01060094 401890100
KACV 200653Z AUTO 16006KT 8SM CLR 10/09 A2995 RMK AO2 SLP146 T01000094
KACV 200553Z AUTO 14004KT 7SM CLR 11/09 A2997 RMK AO2 SLP153 T01060094 10167 20106 58004
KACV 200453Z AUTO 16007KT 8SM CLR 11/09 A2997 RMK AO2 SLP156 T01060094
KACV 200353Z AUTO 16004KT 6SM BR CLR 11/09 A2997 RMK AO2 SLP156 T01110089
KACV 200253Z AUTO 33008KT 7SM CLR 14/10 A2998 RMK AO2 SLP157 T01390100 58009
KACV 200153Z AUTO 32010G18KT 8SM CLR 14/11 A2999 RMK AO2 SLP161 T01440106
KACV 200053Z AUTO 33013G19KT 9SM CLR 16/11 A3000 RMK AO2 SLP163 T01610111
KACV 192353Z AUTO 33012KT 9SM CLR 17/11 A3001 RMK AO2 SLP165 6//// T01670111 10189 20128 56010
KACV 192253Z AUTO 34015KT 10SM CLR 17/11 A3001 RMK AO2 SLP168 T01720111
KACV 192153Z AUTO 33013KT 10SM CLR 18/12 A3002 RMK AO2 SLP170 T01830122
KACV 192053Z AUTO 30008KT 10SM CLR 16/12 A3004 RMK AO2 SLP176 6//// T01610117 58001
KACV 192018Z AUTO VRB06KT 10SM FEW007 16/12 A3004 RMK AO2 T01610122 $
KACV 192017Z AUTO 28005KT 10SM SCT007 16/13 A3004 RMK AO2 T01610128 PWINO $
KACV 192009Z AUTO 30006KT 10SM BKN006 16/13 A3004 RMK AO2 T01610128 $
KACV 192004Z AUTO VRB05KT 10SM BKN006 A3004 RMK AO2 $
KACV 191953Z AUTO 28006KT 10SM OVC006 16/13 A3004 RMK AO2 SLP178 T01560128
KACV 191936Z AUTO 28005KT 10SM OVC005 14/13 A3005 RMK AO2 T01440128
KACV 191853Z AUTO 28005KT 8SM OVC003 14/13 A3004 RMK AO2 SLP178 T01390133
KACV 191836Z AUTO 29005KT 3SM R32/4500VP6000FT BR OVC002 13/13 A3004 RMK AO2 T01330128
KACV 191829Z AUTO 28005KT 2 1/2SM R32/4000VP6000FT BR OVC002 13/13 A3004 RMK AO2 VIS 2V4 T01330128
KACV 191820Z AUTO 28006KT 1 1/2SM R32/2600VP6000FT BR OVC002 13/13 A3004 RMK AO2 T01330133
KACV 191801Z AUTO 30005KT 1/2SM R32/1800V3500FT FG VV002 13/13 A3004 RMK AO2 T01280128 PNO $
KACV 191756Z AUTO 29003KT 1/2SM R32/1800V3500FT FG VV002 13/13 A3004 RMK AO2 T01280128 PNO $
KACV 191753Z AUTO 29003KT 1/2SM R32/2000V3500FT FG VV002 13/13 A3004 RMK AO2 SLP178 6//// T01280128 10133 20122 50003 PNO $
KACV 191736Z AUTO 29003KT 1/2SM R32/2000V4500FT FG VV002 13/13 A3004 RMK AO2 T01280128 PNO $
KACV 191726Z AUTO 30004KT 1/2SM R32/1600V3000FT FG VV002 13/13 A3004 RMK AO2 T01280128
KACV 191719Z AUTO 28004KT 1/4SM R32/1600V3000FT FG VV002 13/13 A3004 RMK AO2 T01280128
KACV 191710Z AUTO 30003KT 1/4SM R32/1600V2200FT FG VV002 13/13 A3004 RMK AO2 T01280128
KACV 191706Z AUTO 29004KT 1/2SM R32/1600V2400FT FG VV002 13/13 A3004 RMK AO2 T01280128
KACV 191653Z AUTO 27003KT 1/4SM R32/1400V1800FT FG VV002 13/13 A3004 RMK AO2 SLP178 T01280128
KACV 191610Z AUTO 29004KT 1/4SM R32/1200V1400FT FG VV002 13/13 A3004 RMK AO2 T01280128
KACV 191601Z AUTO 27003KT 1/4SM R32/1200VP6000FT FG OVC003 13/13 A3004 RMK AO2 T01280128
KACV 191556Z AUTO 28003KT 1 1/2SM R32/1600VP6000FT BR OVC003 13/13 A3004 RMK AO2 T01280128
KACV 191553Z AUTO 00000KT 5SM BR OVC003 13/13 A3004 RMK AO2 SLP177 T01280128
KACV 191539Z AUTO 00000KT 3SM BR OVC002 13/13 A3003 RMK AO2 T01280128
KACV 191532Z AUTO 21003KT 1 1/4SM R32/6000VP6000FT BR OVC002 13/13 A3004 RMK AO2 T01280128
KACV 191511Z AUTO 00000KT 3/4SM R32/3000V4500FT BR VV002 13/13 A3003 RMK AO2 T01280128
KACV 191453Z AUTO 00000KT 1/4SM R32/1600V2800FT FG VV002 12/12 A3003 RMK AO2 SLP174 T01220122 50003
KACV 191431Z AUTO 25003KT 1/4SM R32/1400V1600FT FG VV002 12/12 A3003 RMK AO2 T01220122
KACV 191409Z AUTO 25003KT 1/4SM R32/1800V3500FT FG OVC002 12/12 A3003 RMK AO2 T01220122
KACV 191353Z AUTO 00000KT 1 1/4SM R32/3000V4000FT BR OVC002 12/12 A3003 RMK AO2 SLP174 T01220122
KACV 191342Z AUTO 00000KT 1 3/4SM R32/2600V5000FT BR OVC002 12/12 A3003 RMK AO2 T01220122
KACV 191333Z AUTO 00000KT 3/4SM R32/2400V6000FT BR OVC002 12/12 A3003 RMK AO2 T01220122
KACV 191317Z AUTO 00000KT 1 3/4SM R32/5000VP6000FT BR OVC002 13/13 A3003 RMK AO2 T01280128
KACV 191253Z AUTO 00000KT 3SM BR OVC002 12/12 A3002 RMK AO2 SLP171 T01220122
KACV 191242Z AUTO 00000KT 3SM BR OVC002 12/12 A3002 RMK AO2 T01220122
KACV 191209Z AUTO 00000KT 2SM BR OVC002 13/12 A3002 RMK AO2 T01280122
KACV 191201Z AUTO 00000KT 1 3/4SM BR OVC002 13/12 A3002 RMK AO2 T01280122
KACV 191153Z AUTO 00000KT 2SM BR OVC002 12/12 A3002 RMK AO2 SLP170 T01220122 10133 20122 52001
KACV 191134Z AUTO 00000KT 3SM BR OVC002 12/12 A3002 RMK AO2 T01220122
KACV 191125Z AUTO 21003KT 2SM BR OVC002 12/12 A3002 RMK AO2 T01220122
KACV 191053Z AUTO 00000KT 4SM BR OVC002 13/13 A3002 RMK AO2 SLP169 T01280128
KACV 190953Z AUTO 00000KT 10SM OVC003 13/12 A3002 RMK AO2 SLP171 T01280122
KACV 190853Z AUTO 17003KT 10SM OVC004 13/13 A3002 RMK AO2 SLP170 T01280128 55003